sensor_id;sensor_type;location;lat;lon;timestamp;P1;durP1;ratioP1;P2;durP2;ratioP2
7931;SDS011;4011;49.424;10.894;2023-05-20T00:01:26;3.60;;;2.30;;
7931;SDS011;4011;49.424;10.894;2023-05-20T00:06:48;3.53;;;2.67;;
7931;SDS011;4011;49.424;10.894;2023-05-20T00:12:10;3.67;;;2.78;;
7931;SDS011;4011;49.424;10.894;2023-05-20T00:17:32;4.13;;;2.70;;
7931;SDS011;4011;49.424;10.894;2023-05-20T00:22:53;3.70;;;2.70;;
7931;SDS011;4011;49.424;10.894;2023-05-20T00:28:16;3.50;;;2.40;;
7931;SDS011;4011;49.424;10.894;2023-05-20T00:33:38;4.45;;;3.00;;
7931;SDS011;4011;49.424;10.894;2023-05-20T00:39:00;3.75;;;3.28;;
7931;SDS011;4011;49.424;10.894;2023-05-20T00:44:23;3.45;;;2.60;;
7931;SDS011;4011;49.424;10.894;2023-05-20T00:49:46;4.28;;;3.05;;
7931;SDS011;4011;49.424;10.894;2023-05-20T00:55:07;4.00;;;2.92;;
7931;SDS011;4011;49.424;10.894;2023-05-20T01:00:30;4.32;;;3.58;;
7931;SDS011;4011;49.424;10.894;2023-05-20T01:05:52;3.85;;;2.80;;
7931;SDS011;4011;49.424;10.894;2023-05-20T01:11:14;4.07;;;2.88;;
7931;SDS011;4011;49.424;10.894;2023-05-20T01:16:37;3.60;;;2.47;;
7931;SDS011;4011;49.424;10.894;2023-05-20T01:21:59;3.53;;;3.03;;
7931;SDS011;4011;49.424;10.894;2023-05-20T01:27:24;3.63;;;2.70;;
7931;SDS011;4011;49.424;10.894;2023-05-20T01:32:47;3.38;;;2.63;;
7931;SDS011;4011;49.424;10.894;2023-05-20T01:38:08;3.75;;;3.10;;
7931;SDS011;4011;49.424;10.894;2023-05-20T01:43:31;3.40;;;2.92;;
7931;SDS011;4011;49.424;10.894;2023-05-20T01:48:53;3.50;;;3.03;;
7931;SDS011;4011;49.424;10.894;2023-05-20T01:54:14;3.80;;;2.80;;
7931;SDS011;4011;49.424;10.894;2023-05-20T01:59:37;3.83;;;2.97;;
7931;SDS011;4011;49.424;10.894;2023-05-20T02:04:58;3.53;;;2.80;;
7931;SDS011;4011;49.424;10.894;2023-05-20T02:10:20;3.97;;;3.58;;
7931;SDS011;4011;49.424;10.894;2023-05-20T02:15:42;3.95;;;2.80;;
7931;SDS011;4011;49.424;10.894;2023-05-20T02:21:04;3.95;;;3.08;;
7931;SDS011;4011;49.424;10.894;2023-05-20T02:26:25;4.00;;;2.90;;
7931;SDS011;4011;49.424;10.894;2023-05-20T02:31:49;4.00;;;3.53;;
7931;SDS011;4011;49.424;10.894;2023-05-20T02:37:10;3.70;;;3.22;;
7931;SDS011;4011;49.424;10.894;2023-05-20T02:42:31;4.22;;;2.83;;
7931;SDS011;4011;49.424;10.894;2023-05-20T02:47:54;4.43;;;2.80;;
7931;SDS011;4011;49.424;10.894;2023-05-20T02:53:15;4.25;;;3.17;;
7931;SDS011;4011;49.424;10.894;2023-05-20T02:58:37;4.00;;;3.53;;
7931;SDS011;4011;49.424;10.894;2023-05-20T03:04:00;3.65;;;2.78;;
7931;SDS011;4011;49.424;10.894;2023-05-20T03:09:22;4.50;;;2.83;;
7931;SDS011;4011;49.424;10.894;2023-05-20T03:14:43;3.67;;;3.00;;
7931;SDS011;4011;49.424;10.894;2023-05-20T03:20:07;3.92;;;3.47;;
7931;SDS011;4011;49.424;10.894;2023-05-20T03:25:31;3.83;;;2.75;;
7931;SDS011;4011;49.424;10.894;2023-05-20T03:30:52;4.68;;;3.15;;
7931;SDS011;4011;49.424;10.894;2023-05-20T03:36:15;3.55;;;2.80;;
7931;SDS011;4011;49.424;10.894;2023-05-20T03:41:37;4.22;;;3.75;;
7931;SDS011;4011;49.424;10.894;2023-05-20T03:46:58;3.78;;;3.20;;
7931;SDS011;4011;49.424;10.894;2023-05-20T03:52:21;3.83;;;3.13;;
7931;SDS011;4011;49.424;10.894;2023-05-20T03:57:42;3.85;;;2.92;;
7931;SDS011;4011;49.424;10.894;2023-05-20T04:03:04;3.90;;;3.33;;
7931;SDS011;4011;49.424;10.894;2023-05-20T04:08:27;3.70;;;3.20;;
7931;SDS011;4011;49.424;10.894;2023-05-20T04:13:48;3.80;;;2.80;;
7931;SDS011;4011;49.424;10.894;2023-05-20T04:19:09;4.93;;;3.17;;
7931;SDS011;4011;49.424;10.894;2023-05-20T04:24:33;4.00;;;2.80;;
7931;SDS011;4011;49.424;10.894;2023-05-20T04:29:54;4.57;;;3.63;;
7931;SDS011;4011;49.424;10.894;2023-05-20T04:35:17;5.72;;;3.80;;
7931;SDS011;4011;49.424;10.894;2023-05-20T04:40:40;4.65;;;3.35;;
7931;SDS011;4011;49.424;10.894;2023-05-20T04:46:01;5.75;;;3.42;;
7931;SDS011;4011;49.424;10.894;2023-05-20T04:51:25;4.40;;;3.97;;
7931;SDS011;4011;49.424;10.894;2023-05-20T04:56:47;4.57;;;4.05;;
7931;SDS011;4011;49.424;10.894;2023-05-20T05:02:10;4.13;;;3.33;;
7931;SDS011;4011;49.424;10.894;2023-05-20T05:07:31;4.72;;;3.38;;
7931;SDS011;4011;49.424;10.894;2023-05-20T05:12:54;4.75;;;3.42;;
7931;SDS011;4011;49.424;10.894;2023-05-20T05:18:15;4.95;;;4.45;;
7931;SDS011;4011;49.424;10.894;2023-05-20T05:23:38;4.50;;;3.88;;
7931;SDS011;4011;49.424;10.894;2023-05-20T05:29:02;4.43;;;4.00;;
7931;SDS011;4011;49.424;10.894;2023-05-20T05:34:24;4.97;;;4.10;;
7931;SDS011;4011;49.424;10.894;2023-05-20T05:39:45;5.35;;;4.80;;
7931;SDS011;4011;49.424;10.894;2023-05-20T05:45:09;4.32;;;3.85;;
7931;SDS011;4011;49.424;10.894;2023-05-20T05:50:31;5.03;;;4.00;;
7931;SDS011;4011;49.424;10.894;2023-05-20T05:55:52;4.78;;;3.95;;
7931;SDS011;4011;49.424;10.894;2023-05-20T06:01:15;5.63;;;5.07;;
7931;SDS011;4011;49.424;10.894;2023-05-20T06:06:37;5.07;;;4.57;;
7931;SDS011;4011;49.424;10.894;2023-05-20T06:11:58;5.30;;;4.35;;
7931;SDS011;4011;49.424;10.894;2023-05-20T06:17:21;5.75;;;4.45;;
7931;SDS011;4011;49.424;10.894;2023-05-20T06:22:42;5.22;;;4.65;;
7931;SDS011;4011;49.424;10.894;2023-05-20T06:28:04;7.13;;;5.30;;
7931;SDS011;4011;49.424;10.894;2023-05-20T06:33:27;5.95;;;4.85;;
7931;SDS011;4011;49.424;10.894;2023-05-20T06:38:48;5.07;;;4.57;;
7931;SDS011;4011;49.424;10.894;2023-05-20T06:44:10;5.70;;;4.95;;
7931;SDS011;4011;49.424;10.894;2023-05-20T06:49:32;6.57;;;5.95;;
7931;SDS011;4011;49.424;10.894;2023-05-20T06:54:54;6.25;;;4.75;;
7931;SDS011;4011;49.424;10.894;2023-05-20T07:00:15;5.75;;;4.90;;
7931;SDS011;4011;49.424;10.894;2023-05-20T07:05:38;6.28;;;4.70;;
7931;SDS011;4011;49.424;10.894;2023-05-20T07:10:59;6.30;;;5.13;;
7931;SDS011;4011;49.424;10.894;2023-05-20T07:16:21;7.07;;;6.38;;
7931;SDS011;4011;49.424;10.894;2023-05-20T07:21:43;6.38;;;4.60;;
7931;SDS011;4011;49.424;10.894;2023-05-20T07:27:05;6.25;;;5.45;;
7931;SDS011;4011;49.424;10.894;2023-05-20T07:32:26;6.00;;;4.55;;
7931;SDS011;4011;49.424;10.894;2023-05-20T07:37:49;8.10;;;6.40;;
7931;SDS011;4011;49.424;10.894;2023-05-20T07:43:10;6.15;;;4.85;;
7931;SDS011;4011;49.424;10.894;2023-05-20T07:48:31;6.45;;;5.28;;
7931;SDS011;4011;49.424;10.894;2023-05-20T07:53:54;7.40;;;5.55;;
7931;SDS011;4011;49.424;10.894;2023-05-20T07:59:15;7.05;;;6.30;;
7931;SDS011;4011;49.424;10.894;2023-05-20T08:04:37;8.25;;;5.68;;
7931;SDS011;4011;49.424;10.894;2023-05-20T08:10:00;6.38;;;5.57;;
7931;SDS011;4011;49.424;10.894;2023-05-20T08:15:21;6.70;;;5.35;;
7931;SDS011;4011;49.424;10.894;2023-05-20T08:20:42;7.82;;;5.72;;
7931;SDS011;4011;49.424;10.894;2023-05-20T08:26:05;7.40;;;6.70;;
7931;SDS011;4011;49.424;10.894;2023-05-20T08:31:26;6.53;;;5.53;;
7931;SDS011;4011;49.424;10.894;2023-05-20T08:36:48;8.32;;;5.47;;
7931;SDS011;4011;49.424;10.894;2023-05-20T08:42:11;6.60;;;5.72;;
7931;SDS011;4011;49.424;10.894;2023-05-20T08:47:32;7.47;;;6.00;;
7931;SDS011;4011;49.424;10.894;2023-05-20T08:52:54;9.10;;;6.28;;
7931;SDS011;4011;49.424;10.894;2023-05-20T08:58:16;7.03;;;5.50;;
7931;SDS011;4011;49.424;10.894;2023-05-20T09:03:38;6.75;;;5.60;;
7931;SDS011;4011;49.424;10.894;2023-05-20T09:09:00;6.15;;;5.55;;
7931;SDS011;4011;49.424;10.894;2023-05-20T09:14:23;7.53;;;6.82;;
7931;SDS011;4011;49.424;10.894;2023-05-20T09:19:46;6.30;;;5.00;;
7931;SDS011;4011;49.424;10.894;2023-05-20T09:25:08;7.65;;;5.90;;
7931;SDS011;4011;49.424;10.894;2023-05-20T09:30:33;6.38;;;5.60;;
7931;SDS011;4011;49.424;10.894;2023-05-20T09:35:59;7.43;;;6.68;;
7931;SDS011;4011;49.424;10.894;2023-05-20T09:41:22;6.80;;;6.00;;
7931;SDS011;4011;49.424;10.894;2023-05-20T09:46:46;7.25;;;5.75;;
7931;SDS011;4011;49.424;10.894;2023-05-20T09:52:08;6.78;;;6.07;;
7931;SDS011;4011;49.424;10.894;2023-05-20T09:57:30;7.65;;;6.85;;
7931;SDS011;4011;49.424;10.894;2023-05-20T10:02:53;7.20;;;6.35;;
7931;SDS011;4011;49.424;10.894;2023-05-20T10:08:29;6.85;;;6.15;;
7931;SDS011;4011;49.424;10.894;2023-05-20T10:13:58;7.65;;;6.80;;
7931;SDS011;4011;49.424;10.894;2023-05-20T10:19:27;6.53;;;5.70;;
7931;SDS011;4011;49.424;10.894;2023-05-20T10:24:56;6.97;;;5.90;;
7931;SDS011;4011;49.424;10.894;2023-05-20T10:30:19;7.70;;;7.00;;
7931;SDS011;4011;49.424;10.894;2023-05-20T10:35:45;7.10;;;5.90;;
7931;SDS011;4011;49.424;10.894;2023-05-20T10:41:07;7.63;;;5.85;;
7931;SDS011;4011;49.424;10.894;2023-05-20T10:46:30;8.30;;;6.07;;
7931;SDS011;4011;49.424;10.894;2023-05-20T10:51:53;10.18;;;7.30;;
7931;SDS011;4011;49.424;10.894;2023-05-20T10:57:15;7.80;;;6.43;;
7931;SDS011;4011;49.424;10.894;2023-05-20T11:02:36;7.00;;;5.93;;
7931;SDS011;4011;49.424;10.894;2023-05-20T11:08:03;8.52;;;5.88;;
7931;SDS011;4011;49.424;10.894;2023-05-20T11:13:24;7.13;;;6.40;;
7931;SDS011;4011;49.424;10.894;2023-05-20T11:18:47;7.13;;;6.28;;
7931;SDS011;4011;49.424;10.894;2023-05-20T11:24:09;7.63;;;5.10;;
7931;SDS011;4011;49.424;10.894;2023-05-20T11:29:31;6.35;;;5.68;;
7931;SDS011;4011;49.424;10.894;2023-05-20T11:34:52;6.70;;;5.78;;
7931;SDS011;4011;49.424;10.894;2023-05-20T11:40:15;6.60;;;6.00;;
7931;SDS011;4011;49.424;10.894;2023-05-20T11:45:44;6.53;;;5.30;;
7931;SDS011;4011;49.424;10.894;2023-05-20T11:51:05;6.70;;;5.57;;
7931;SDS011;4011;49.424;10.894;2023-05-20T11:56:29;6.75;;;6.13;;
7931;SDS011;4011;49.424;10.894;2023-05-20T12:01:51;6.13;;;5.32;;
7931;SDS011;4011;49.424;10.894;2023-05-20T12:07:12;6.85;;;5.43;;
7931;SDS011;4011;49.424;10.894;2023-05-20T12:12:36;6.07;;;5.18;;
7931;SDS011;4011;49.424;10.894;2023-05-20T12:17:57;6.05;;;5.45;;
7931;SDS011;4011;49.424;10.894;2023-05-20T12:23:19;6.55;;;5.85;;
7931;SDS011;4011;49.424;10.894;2023-05-20T12:28:42;5.90;;;4.95;;
7931;SDS011;4011;49.424;10.894;2023-05-20T12:34:03;5.95;;;5.03;;
7931;SDS011;4011;49.424;10.894;2023-05-20T12:39:24;5.85;;;5.00;;
7931;SDS011;4011;49.424;10.894;2023-05-20T12:44:47;7.32;;;6.18;;
7931;SDS011;4011;49.424;10.894;2023-05-20T12:50:08;6.03;;;5.32;;
7931;SDS011;4011;49.424;10.894;2023-05-20T12:55:30;6.00;;;5.20;;
7931;SDS011;4011;49.424;10.894;2023-05-20T13:00:52;6.32;;;5.18;;
7931;SDS011;4011;49.424;10.894;2023-05-20T13:06:14;6.03;;;5.43;;
7931;SDS011;4011;49.424;10.894;2023-05-20T13:11:35;6.63;;;5.97;;
7931;SDS011;4011;49.424;10.894;2023-05-20T13:16:58;6.43;;;5.38;;
7931;SDS011;4011;49.424;10.894;2023-05-20T13:22:19;6.60;;;5.90;;
7931;SDS011;4011;49.424;10.894;2023-05-20T13:27:41;8.68;;;6.20;;
7931;SDS011;4011;49.424;10.894;2023-05-20T13:33:04;8.75;;;7.45;;
7931;SDS011;4011;49.424;10.894;2023-05-20T13:38:25;8.52;;;6.90;;
7931;SDS011;4011;49.424;10.894;2023-05-20T13:43:47;8.25;;;6.57;;
7931;SDS011;4011;49.424;10.894;2023-05-20T13:49:11;7.80;;;6.72;;
7931;SDS011;4011;49.424;10.894;2023-05-20T13:54:32;8.80;;;7.85;;
7931;SDS011;4011;49.424;10.894;2023-05-20T13:59:53;8.73;;;7.88;;
7931;SDS011;4011;49.424;10.894;2023-05-20T14:05:16;8.10;;;6.72;;
7931;SDS011;4011;49.424;10.894;2023-05-20T14:10:38;9.55;;;7.25;;
7931;SDS011;4011;49.424;10.894;2023-05-20T14:15:59;10.25;;;7.55;;
7931;SDS011;4011;49.424;10.894;2023-05-20T14:21:22;8.20;;;7.40;;
7931;SDS011;4011;49.424;10.894;2023-05-20T14:26:43;8.15;;;6.88;;
7931;SDS011;4011;49.424;10.894;2023-05-20T14:32:05;7.88;;;6.95;;
7931;SDS011;4011;49.424;10.894;2023-05-20T14:37:29;8.57;;;7.28;;
7931;SDS011;4011;49.424;10.894;2023-05-20T14:42:51;8.73;;;7.82;;
7931;SDS011;4011;49.424;10.894;2023-05-20T14:48:12;9.30;;;7.45;;
7931;SDS011;4011;49.424;10.894;2023-05-20T14:53:35;8.18;;;6.82;;
7931;SDS011;4011;49.424;10.894;2023-05-20T14:58:57;7.78;;;6.75;;
7931;SDS011;4011;49.424;10.894;2023-05-20T15:04:18;7.93;;;6.80;;
7931;SDS011;4011;49.424;10.894;2023-05-20T15:09:41;8.52;;;7.38;;
7931;SDS011;4011;49.424;10.894;2023-05-20T15:15:03;8.65;;;6.65;;
7931;SDS011;4011;49.424;10.894;2023-05-20T15:20:25;7.75;;;6.55;;
7931;SDS011;4011;49.424;10.894;2023-05-20T15:25:48;7.70;;;6.57;;
7931;SDS011;4011;49.424;10.894;2023-05-20T15:31:10;8.70;;;7.90;;
7931;SDS011;4011;49.424;10.894;2023-05-20T15:36:31;7.25;;;6.53;;
7931;SDS011;4011;49.424;10.894;2023-05-20T15:41:54;7.85;;;6.43;;
7931;SDS011;4011;49.424;10.894;2023-05-20T15:47:17;7.85;;;6.40;;
7931;SDS011;4011;49.424;10.894;2023-05-20T15:52:40;7.50;;;6.68;;
7931;SDS011;4011;49.424;10.894;2023-05-20T15:58:03;7.68;;;6.90;;
7931;SDS011;4011;49.424;10.894;2023-05-20T16:03:24;7.05;;;5.85;;
7931;SDS011;4011;49.424;10.894;2023-05-20T16:08:46;7.60;;;6.07;;
7931;SDS011;4011;49.424;10.894;2023-05-20T16:14:09;7.70;;;6.90;;
7931;SDS011;4011;49.424;10.894;2023-05-20T16:19:30;7.90;;;6.93;;
7931;SDS011;4011;49.424;10.894;2023-05-20T16:24:51;7.97;;;6.13;;
7931;SDS011;4011;49.424;10.894;2023-05-20T16:30:15;8.80;;;7.38;;
7931;SDS011;4011;49.424;10.894;2023-05-20T16:35:36;31.50;;;23.67;;
7931;SDS011;4011;49.424;10.894;2023-05-20T16:40:57;38.45;;;28.00;;
7931;SDS011;4011;49.424;10.894;2023-05-20T16:46:20;36.97;;;27.48;;
7931;SDS011;4011;49.424;10.894;2023-05-20T16:51:42;35.25;;;27.73;;
7931;SDS011;4011;49.424;10.894;2023-05-20T16:57:03;32.30;;;24.42;;
7931;SDS011;4011;49.424;10.894;2023-05-20T17:02:26;33.42;;;25.10;;
7931;SDS011;4011;49.424;10.894;2023-05-20T17:07:48;32.00;;;24.30;;
7931;SDS011;4011;49.424;10.894;2023-05-20T17:13:10;30.70;;;23.85;;
7931;SDS011;4011;49.424;10.894;2023-05-20T17:18:33;30.75;;;22.67;;
7931;SDS011;4011;49.424;10.894;2023-05-20T17:23:54;25.70;;;18.85;;
7931;SDS011;4011;49.424;10.894;2023-05-20T17:29:16;23.05;;;19.52;;
7931;SDS011;4011;49.424;10.894;2023-05-20T17:34:38;21.73;;;17.35;;
7931;SDS011;4011;49.424;10.894;2023-05-20T17:40:00;20.08;;;15.98;;
7931;SDS011;4011;49.424;10.894;2023-05-20T17:45:23;20.52;;;16.08;;
7931;SDS011;4011;49.424;10.894;2023-05-20T17:50:46;18.20;;;15.90;;
7931;SDS011;4011;49.424;10.894;2023-05-20T17:56:07;16.73;;;14.13;;
7931;SDS011;4011;49.424;10.894;2023-05-20T18:01:28;18.65;;;13.65;;
7931;SDS011;4011;49.424;10.894;2023-05-20T18:06:51;16.70;;;13.50;;
7931;SDS011;4011;49.424;10.894;2023-05-20T18:12:12;15.02;;;11.93;;
7931;SDS011;4011;49.424;10.894;2023-05-20T18:17:34;14.77;;;12.55;;
7931;SDS011;4011;49.424;10.894;2023-05-20T18:22:57;12.85;;;10.73;;
7931;SDS011;4011;49.424;10.894;2023-05-20T18:28:18;13.77;;;10.82;;
7931;SDS011;4011;49.424;10.894;2023-05-20T18:33:40;12.93;;;10.98;;
7931;SDS011;4011;49.424;10.894;2023-05-20T18:39:03;13.30;;;11.77;;
7931;SDS011;4011;49.424;10.894;2023-05-20T18:44:24;13.52;;;11.50;;
7931;SDS011;4011;49.424;10.894;2023-05-20T18:49:46;13.65;;;11.10;;
7931;SDS011;4011;49.424;10.894;2023-05-20T18:55:08;11.60;;;9.25;;
7931;SDS011;4011;49.424;10.894;2023-05-20T19:00:30;10.88;;;9.23;;
7931;SDS011;4011;49.424;10.894;2023-05-20T19:05:51;11.10;;;9.57;;
7931;SDS011;4011;49.424;10.894;2023-05-20T19:11:14;11.75;;;9.32;;
7931;SDS011;4011;49.424;10.894;2023-05-20T19:16:35;11.35;;;8.77;;
7931;SDS011;4011;49.424;10.894;2023-05-20T19:21:57;10.35;;;8.40;;
7931;SDS011;4011;49.424;10.894;2023-05-20T19:27:20;11.18;;;9.23;;
7931;SDS011;4011;49.424;10.894;2023-05-20T19:32:41;10.30;;;9.05;;
7931;SDS011;4011;49.424;10.894;2023-05-20T19:38:03;9.40;;;8.02;;
7931;SDS011;4011;49.424;10.894;2023-05-20T19:43:27;10.55;;;8.68;;
7931;SDS011;4011;49.424;10.894;2023-05-20T19:48:49;10.23;;;9.07;;
7931;SDS011;4011;49.424;10.894;2023-05-20T19:54:11;9.50;;;8.50;;
7931;SDS011;4011;49.424;10.894;2023-05-20T19:59:33;9.50;;;7.60;;
7931;SDS011;4011;49.424;10.894;2023-05-20T20:04:56;8.68;;;7.78;;
7931;SDS011;4011;49.424;10.894;2023-05-20T20:10:18;9.27;;;7.30;;
7931;SDS011;4011;49.424;10.894;2023-05-20T20:15:41;9.98;;;8.75;;
7931;SDS011;4011;49.424;10.894;2023-05-20T20:21:02;8.63;;;7.68;;
7931;SDS011;4011;49.424;10.894;2023-05-20T20:26:24;9.25;;;8.18;;
7931;SDS011;4011;49.424;10.894;2023-05-20T20:31:47;11.00;;;7.60;;
7931;SDS011;4011;49.424;10.894;2023-05-20T20:37:09;10.27;;;8.57;;
7931;SDS011;4011;49.424;10.894;2023-05-20T20:42:33;9.60;;;7.85;;
7931;SDS011;4011;49.424;10.894;2023-05-20T20:47:57;10.35;;;7.13;;
7931;SDS011;4011;49.424;10.894;2023-05-20T20:53:20;10.00;;;7.38;;
7931;SDS011;4011;49.424;10.894;2023-05-20T20:58:42;9.45;;;7.70;;
7931;SDS011;4011;49.424;10.894;2023-05-20T21:04:05;9.80;;;7.43;;
7931;SDS011;4011;49.424;10.894;2023-05-20T21:09:27;9.18;;;7.20;;
7931;SDS011;4011;49.424;10.894;2023-05-20T21:14:49;10.45;;;7.68;;
7931;SDS011;4011;49.424;10.894;2023-05-20T21:20:12;8.52;;;7.20;;
7931;SDS011;4011;49.424;10.894;2023-05-20T21:25:34;8.18;;;7.38;;
7931;SDS011;4011;49.424;10.894;2023-05-20T21:30:55;8.05;;;7.03;;
7931;SDS011;4011;49.424;10.894;2023-05-20T21:36:18;9.35;;;7.38;;
7931;SDS011;4011;49.424;10.894;2023-05-20T21:41:40;8.55;;;6.47;;
7931;SDS011;4011;49.424;10.894;2023-05-20T21:47:02;9.45;;;7.97;;
7931;SDS011;4011;49.424;10.894;2023-05-20T21:52:24;8.73;;;6.90;;
7931;SDS011;4011;49.424;10.894;2023-05-20T21:57:46;7.93;;;6.40;;
7931;SDS011;4011;49.424;10.894;2023-05-20T22:03:07;7.97;;;7.18;;
7931;SDS011;4011;49.424;10.894;2023-05-20T22:08:30;8.48;;;7.55;;
7931;SDS011;4011;49.424;10.894;2023-05-20T22:13:52;8.27;;;7.28;;
7931;SDS011;4011;49.424;10.894;2023-05-20T22:19:14;8.35;;;6.88;;
7931;SDS011;4011;49.424;10.894;2023-05-20T22:24:37;8.05;;;6.68;;
7931;SDS011;4011;49.424;10.894;2023-05-20T22:29:58;8.40;;;7.25;;
7931;SDS011;4011;49.424;10.894;2023-05-20T22:35:20;9.85;;;7.18;;
7931;SDS011;4011;49.424;10.894;2023-05-20T22:40:44;9.10;;;7.07;;
7931;SDS011;4011;49.424;10.894;2023-05-20T22:46:05;7.38;;;6.05;;
7931;SDS011;4011;49.424;10.894;2023-05-20T22:51:27;7.82;;;6.90;;
7931;SDS011;4011;49.424;10.894;2023-05-20T22:56:51;8.20;;;7.15;;
7931;SDS011;4011;49.424;10.894;2023-05-20T23:02:17;7.07;;;5.97;;
7931;SDS011;4011;49.424;10.894;2023-05-20T23:07:40;7.93;;;6.85;;
7931;SDS011;4011;49.424;10.894;2023-05-20T23:13:02;7.57;;;6.40;;
7931;SDS011;4011;49.424;10.894;2023-05-20T23:18:24;8.52;;;7.72;;
7931;SDS011;4011;49.424;10.894;2023-05-20T23:23:45;7.75;;;6.50;;
7931;SDS011;4011;49.424;10.894;2023-05-20T23:29:08;8.05;;;6.88;;
7931;SDS011;4011;49.424;10.894;2023-05-20T23:34:30;9.18;;;6.40;;
7931;SDS011;4011;49.424;10.894;2023-05-20T23:39:51;7.43;;;6.70;;
7931;SDS011;4011;49.424;10.894;2023-05-20T23:45:14;7.78;;;6.97;;
7931;SDS011;4011;49.424;10.894;2023-05-20T23:50:35;7.28;;;6.57;;
7931;SDS011;4011;49.424;10.894;2023-05-20T23:55:57;8.52;;;7.10;;
